Weather History for KLHZ - January, 2014

Change the Weather History Date:

Saturday, January 25, 2014

  Actual Average (KRDU) Record (KRDU)
Temperature  
Mean Temperature 32 °F 41 °F  
Max Temperature 42 °F 52 °F 78 °F (1950)
Min Temperature 21 °F 31 °F 8 °F (1963)
Degree Days  
Heating Degree Days 34 24  
Month to date heating degree days 606  
Since 1 July heating degree days 1857  
Cooling Degree Days 0 0  
Month to date cooling degree days 0  
Year to date cooling degree days 0  
Moisture  
Dew Point 6 °F    
Average Humidity 33    
Maximum Humidity 46    
Minimum Humidity 24    
Precipitation  
Precipitation 0.00 in 0.11 in 2.03 in (2000)
Month to date precipitation 2.83  
Year to date precipitation 2.83  
Snow  
Snow 0.00 in 0.10 in 17.90 in (2000)
Month to date snowfall 2.3  
Since 1 July snowfall 3.0  
Snow Depth -    
Sea Level Pressure  
Sea Level Pressure 29.87 in    
Wind  
Wind Speed 8 mph (SSW)    
Max Wind Speed 17 mph    
Max Gust Speed 28 mph    
Visibility 10 miles    
Events      
T = Trace of Precipitation, MM = Missing Value Source: NWS Daily Summary

Daily Weather History Graph

Daily Weather History Graph

Search for Another Location

Airport or City:

Trip Planner

Search our weather history database for the weather conditions in past years. The results will help you decide how hot, cold, wet, or windy it might be!

Date:

Astronomy

Jan. 25, 2014 Rise Set
Actual Time 7:18 AM EST 5:32 PM EST
Civil Twilight 6:51 AM EST 6:00 PM EST
Nautical Twilight 6:20 AM EST 6:31 PM EST
Astronomical Twilight 5:50 AM EST 7:01 PM EST
Moon 1:49 AM EST (1/25) 12:31 PM EST (1/25)
Length of Visible Light 11h 08m
Length of Day
10h 14m
Waning Crescent, 34% of the Moon is Illuminated
Jan 25
Waning Crescent
Jan 30
New
Feb 6
First Quarter
Feb 14
Full
Feb 22
Last Quarter

Hourly Weather History & Observations

Time (EST) Temp. Windchill Dew Point Humidity Pressure Visibility Wind Dir Wind Speed Gust Speed Precip Events Conditions
12:15 AM 23.0 °F 14.7 °F 1.4 °F 39% 30.25 in 10.0 mi South 6.9 mph - N/A   Clear
12:35 AM 21.2 °F 12.6 °F 1.4 °F 42% 30.24 in 10.0 mi South 6.9 mph - N/A   Clear
12:55 AM 21.2 °F 12.6 °F 1.4 °F 42% 30.23 in 10.0 mi South 6.9 mph - N/A   Clear
1:15 AM 21.2 °F 14.9 °F 1.4 °F 42% 30.22 in 10.0 mi South 4.6 mph - N/A   Clear
1:35 AM 23.0 °F 14.7 °F 1.4 °F 39% 30.20 in 10.0 mi SSW 6.9 mph - N/A   Clear
1:55 AM 23.0 °F 13.9 °F 1.4 °F 39% 30.20 in 10.0 mi SSW 8.1 mph - N/A   Clear
2:15 AM 23.0 °F 14.7 °F 1.4 °F 39% 30.18 in 10.0 mi South 6.9 mph - N/A   Clear
2:35 AM 23.0 °F 14.7 °F 1.4 °F 39% 30.17 in 10.0 mi SSW 6.9 mph - N/A   Clear
2:55 AM 21.2 °F 12.6 °F 1.4 °F 42% 30.16 in 10.0 mi South 6.9 mph - N/A   Clear
3:15 AM 21.2 °F 11.7 °F 1.4 °F 42% 30.14 in 10.0 mi South 8.1 mph - N/A   Clear
3:35 AM 21.2 °F 12.6 °F 1.4 °F 42% 30.13 in 10.0 mi South 6.9 mph - N/A   Clear
3:55 AM 21.2 °F 13.6 °F 1.4 °F 42% 30.11 in 10.0 mi South 5.8 mph - N/A   Clear
4:15 AM 21.2 °F 16.4 °F 3.2 °F 46% 30.10 in 10.0 mi South 3.5 mph - N/A   Clear
4:35 AM 21.2 °F 12.6 °F 1.4 °F 42% 30.08 in 10.0 mi South 6.9 mph - N/A   Clear
4:55 AM 21.2 °F 12.6 °F 3.2 °F 46% 30.07 in 10.0 mi South 6.9 mph - N/A   Clear
5:15 AM 21.2 °F 11.7 °F 1.4 °F 42% 30.05 in 10.0 mi South 8.1 mph - N/A   Clear
5:35 AM 21.2 °F 9.5 °F 1.4 °F 42% 30.03 in 10.0 mi South 11.5 mph 17.3 mph N/A   Clear
5:55 AM 23.0 °F 13.9 °F 1.4 °F 39% 30.03 in 10.0 mi SSW 8.1 mph - N/A   Clear
6:15 AM 23.0 °F 13.9 °F 3.2 °F 43% 30.02 in 10.0 mi SSW 8.1 mph - N/A   Clear
6:35 AM 23.0 °F 15.8 °F 3.2 °F 43% 30.02 in 10.0 mi SSW 5.8 mph - N/A   Clear
6:55 AM 24.8 °F 17.9 °F 1.4 °F 36% 30.02 in 10.0 mi SSW 5.8 mph - N/A   Clear
7:15 AM 26.6 °F 18.2 °F 1.4 °F 34% 30.01 in 10.0 mi SSW 8.1 mph - N/A   Clear
7:35 AM 26.6 °F 16.8 °F 1.4 °F 34% 30.00 in 10.0 mi South 10.4 mph 17.3 mph N/A   Clear
7:55 AM 28.4 °F 19.7 °F 1.4 °F 31% 29.99 in 10.0 mi SSW 9.2 mph 16.1 mph N/A   Clear
8:15 AM 28.4 °F 18.5 °F 1.4 °F 31% 29.97 in 10.0 mi SSW 11.5 mph 16.1 mph N/A   Clear
8:35 AM 28.4 °F 19.1 °F 1.4 °F 31% 29.96 in 10.0 mi SSW 10.4 mph 20.7 mph N/A   Clear
8:55 AM 30.2 °F 21.9 °F 1.4 °F 29% 29.96 in 10.0 mi SSW 9.2 mph 20.7 mph N/A   Clear
9:15 AM 30.2 °F 21.9 °F 1.4 °F 29% 29.94 in 10.0 mi SSW 9.2 mph 19.6 mph N/A   Clear
9:35 AM 32.0 °F 22.5 °F 1.4 °F 27% 29.92 in 10.0 mi SSW 12.7 mph 19.6 mph N/A   Clear
9:55 AM 32.0 °F 22.1 °F 1.4 °F 27% 29.91 in 10.0 mi South 13.8 mph 21.9 mph N/A   Clear
10:15 AM 32.0 °F 23.0 °F 1.4 °F 27% 29.90 in 10.0 mi SSW 11.5 mph 20.7 mph N/A   Scattered Clouds
10:35 AM 32.0 °F 20.8 °F 1.4 °F 27% 29.88 in 10.0 mi South 17.3 mph 27.6 mph N/A   Mostly Cloudy
10:55 AM 32.0 °F 22.5 °F 1.4 °F 27% 29.86 in 10.0 mi SSW 12.7 mph 19.6 mph N/A   Overcast
11:15 AM 33.8 °F 24.8 °F 1.4 °F 25% 29.83 in 10.0 mi SSW 12.7 mph 20.7 mph N/A   Overcast
11:35 AM 33.8 °F 25.8 °F 3.2 °F 28% 29.82 in 10.0 mi SSW 10.4 mph 18.4 mph N/A   Overcast
11:55 AM 35.6 °F 27.1 °F 3.2 °F 26% 29.79 in 10.0 mi SW 12.7 mph 21.9 mph N/A   Overcast
12:15 PM 35.6 °F 26.2 °F 3.2 °F 26% 29.75 in 10.0 mi SSW 15.0 mph 26.5 mph N/A   Overcast
12:35 PM 35.6 °F 26.6 °F 5.0 °F 28% 29.73 in 10.0 mi SSW 13.8 mph 23.0 mph N/A   Overcast
12:55 PM 37.4 °F 29.3 °F 5.0 °F 26% 29.71 in 10.0 mi SSW 12.7 mph 21.9 mph N/A   Scattered Clouds
1:15 PM 37.4 °F 30.3 °F 5.0 °F 26% 29.68 in 10.0 mi SSW 10.4 mph 17.3 mph N/A   Mostly Cloudy
1:35 PM 37.4 °F 30.8 °F 5.0 °F 26% 29.68 in 10.0 mi SSW 9.2 mph 17.3 mph N/A   Overcast
1:55 PM 39.2 °F 34.2 °F 6.8 °F 26% 29.67 in 10.0 mi SSW 6.9 mph 17.3 mph N/A   Overcast
2:15 PM 39.2 °F 33.0 °F 6.8 °F 26% 29.66 in 10.0 mi SW 9.2 mph 21.9 mph N/A   Mostly Cloudy
2:35 PM 41.0 °F 35.2 °F 6.8 °F 24% 29.65 in 10.0 mi SW 9.2 mph 16.1 mph N/A   Mostly Cloudy
2:55 PM 41.0 °F 34.7 °F 8.6 °F 26% 29.65 in 10.0 mi SSW 10.4 mph 23.0 mph N/A   Overcast
3:15 PM 41.0 °F 35.2 °F 8.6 °F 26% 29.64 in 10.0 mi SSW 9.2 mph 20.7 mph N/A   Overcast
3:35 PM 42.8 °F 37.5 °F 8.6 °F 25% 29.63 in 10.0 mi SSW 9.2 mph 18.4 mph N/A   Overcast
3:55 PM 42.8 °F 38.6 °F 10.4 °F 27% 29.64 in 10.0 mi SW 6.9 mph - N/A   Mostly Cloudy
4:15 PM 42.8 °F 40.1 °F 10.4 °F 27% 29.64 in 10.0 mi SW 4.6 mph - N/A   Mostly Cloudy
4:35 PM 42.8 °F 40.1 °F 10.4 °F 27% 29.65 in 10.0 mi SW 4.6 mph - N/A   Mostly Cloudy
4:55 PM 42.8 °F 38.6 °F 10.4 °F 27% 29.65 in 10.0 mi WSW 6.9 mph 18.4 mph N/A   Scattered Clouds
5:15 PM 42.8 °F 39.3 °F 10.4 °F 27% 29.65 in 10.0 mi SW 5.8 mph 17.3 mph N/A   Mostly Cloudy
5:35 PM 42.8 °F 39.3 °F 10.4 °F 27% 29.66 in 10.0 mi WSW 5.8 mph - N/A   Overcast
5:55 PM 42.8 °F 40.1 °F 10.4 °F 27% 29.67 in 10.0 mi SW 4.6 mph - N/A   Overcast
6:15 PM 42.8 °F 39.3 °F 10.4 °F 27% 29.68 in 10.0 mi SW 5.8 mph - N/A   Mostly Cloudy
6:35 PM 41.0 °F 36.4 °F 10.4 °F 29% 29.69 in 10.0 mi WSW 6.9 mph - N/A   Scattered Clouds
6:55 PM 41.0 °F 35.8 °F 10.4 °F 29% 29.71 in 10.0 mi WSW 8.1 mph - N/A   Clear
7:15 PM 41.0 °F 37.1 °F 10.4 °F 29% 29.72 in 10.0 mi WSW 5.8 mph 16.1 mph N/A   Clear
7:35 PM 41.0 °F 34.7 °F 10.4 °F 29% 29.72 in 10.0 mi SW 10.4 mph - N/A   Scattered Clouds
7:55 PM 41.0 °F 35.8 °F 12.2 °F 31% 29.73 in 10.0 mi SW 8.1 mph - N/A   Scattered Clouds
8:15 PM 41.0 °F 35.2 °F 12.2 °F 31% 29.74 in 10.0 mi WSW 9.2 mph - N/A   Clear
8:35 PM 41.0 °F 36.4 °F 12.2 °F 31% 29.74 in 10.0 mi SW 6.9 mph - N/A   Clear
8:55 PM 41.0 °F 35.8 °F 12.2 °F 31% 29.74 in 10.0 mi SW 8.1 mph - N/A   Clear
9:15 PM 41.0 °F 36.4 °F 12.2 °F 31% 29.74 in 10.0 mi WSW 6.9 mph - N/A   Clear
10:15 PM 39.2 °F 35.9 °F 14.0 °F 36% 29.76 in 10.0 mi SW 4.6 mph - N/A   Clear
10:35 PM 39.2 °F 35.9 °F 14.0 °F 36% 29.76 in 10.0 mi SSW 4.6 mph - N/A   Scattered Clouds
10:55 PM 39.2 °F 37.0 °F 14.0 °F 36% 29.77 in 10.0 mi SW 3.5 mph - N/A   Mostly Cloudy
11:15 PM 39.2 °F 35.0 °F 14.0 °F 36% 29.77 in 10.0 mi SW 5.8 mph - N/A   Overcast
11:35 PM 39.2 °F 37.0 °F 14.0 °F 36% 29.78 in 10.0 mi SW 3.5 mph - N/A   Overcast
11:55 PM 39.2 °F 35.0 °F 15.8 °F 39% 29.79 in 10.0 mi WSW 5.8 mph - N/A   Scattered Clouds